createdAt,value
2018-04-13T00:00:06.624Z,4.00
2018-04-13T00:01:06.642Z,4.00
2018-04-13T00:02:06.656Z,4.00
2018-04-13T00:03:06.674Z,4.00
2018-04-13T00:04:06.689Z,4.00
2018-04-13T00:05:06.707Z,4.00
2018-04-13T00:06:06.721Z,4.00
2018-04-13T00:07:06.737Z,4.00
2018-04-13T00:08:06.752Z,4.00
2018-04-13T00:09:06.768Z,4.00
2018-04-13T00:10:06.789Z,4.00
2018-04-13T00:11:06.805Z,4.00
2018-04-13T00:12:06.816Z,4.00
2018-04-13T00:13:06.833Z,4.00
2018-04-13T00:14:06.856Z,4.00
2018-04-13T00:15:06.867Z,4.00
2018-04-13T00:16:06.884Z,4.00
2018-04-13T00:17:06.900Z,4.00
2018-04-13T00:18:06.914Z,4.00
2018-04-13T00:19:06.931Z,4.00
2018-04-13T00:20:06.947Z,4.00
2018-04-13T00:21:06.967Z,4.00
2018-04-13T00:22:06.980Z,4.00
2018-04-13T00:23:06.997Z,4.00
2018-04-13T00:24:07.013Z,4.00
2018-04-13T00:25:07.031Z,4.00
2018-04-13T00:26:07.046Z,4.00
2018-04-13T00:27:07.062Z,4.00
2018-04-13T00:28:07.078Z,4.00
2018-04-13T00:29:07.096Z,4.00
2018-04-13T00:30:07.112Z,4.00
2018-04-13T00:31:07.127Z,4.00
2018-04-13T00:32:07.150Z,4.00
2018-04-13T00:33:07.160Z,4.00
2018-04-13T00:34:07.177Z,4.00
2018-04-13T00:35:07.194Z,4.00
2018-04-13T00:36:07.209Z,4.00
2018-04-13T00:37:07.225Z,4.00
2018-04-13T00:38:07.242Z,4.00
2018-04-13T00:39:07.260Z,4.00
2018-04-13T00:40:07.277Z,4.00
2018-04-13T00:41:07.290Z,4.00
2018-04-13T00:42:07.310Z,4.00
2018-04-13T00:43:07.321Z,4.00
2018-04-13T00:44:07.340Z,4.00
2018-04-13T00:45:07.355Z,4.00
2018-04-13T00:46:07.371Z,4.00
2018-04-13T00:47:07.387Z,4.00
2018-04-13T00:48:07.405Z,4.00
2018-04-13T00:49:07.419Z,4.00
2018-04-13T00:50:07.437Z,4.00
2018-04-13T00:51:07.452Z,4.00
2018-04-13T00:52:07.470Z,4.00
2018-04-13T00:53:07.484Z,4.00
2018-04-13T00:54:07.502Z,4.00
2018-04-13T00:55:07.520Z,4.00
2018-04-13T00:56:07.554Z,4.00
2018-04-13T00:57:07.547Z,4.00
2018-04-13T00:58:07.566Z,4.00
2018-04-13T00:59:07.583Z,4.00
2018-04-13T01:00:07.601Z,4.00
2018-04-13T01:01:07.614Z,4.00
2018-04-13T01:02:07.629Z,4.00
2018-04-13T01:03:07.647Z,4.00
2018-04-13T01:04:07.665Z,4.00
2018-04-13T01:05:07.677Z,4.00
2018-04-13T01:06:07.695Z,4.00
2018-04-13T01:07:07.724Z,4.00
2018-04-13T01:08:07.728Z,4.00
2018-04-13T01:09:07.746Z,4.00
2018-04-13T01:10:07.759Z,4.00
2018-04-13T01:11:07.779Z,4.00
2018-04-13T01:12:07.794Z,4.00
2018-04-13T01:13:07.807Z,4.00
2018-04-13T01:14:07.824Z,4.00
2018-04-13T01:15:07.841Z,4.00
2018-04-13T01:16:07.864Z,4.00
2018-04-13T01:17:07.879Z,4.00
2018-04-13T01:18:07.889Z,4.00
2018-04-13T01:19:07.908Z,4.00
2018-04-13T01:20:07.922Z,4.00
2018-04-13T01:21:07.936Z,4.00
2018-04-13T01:22:07.952Z,4.00
2018-04-13T01:23:07.969Z,4.00
2018-04-13T01:24:07.988Z,4.00
2018-04-13T01:25:08.007Z,4.00
2018-04-13T01:26:08.023Z,4.00
2018-04-13T01:27:08.037Z,4.00
2018-04-13T01:28:08.053Z,4.00
2018-04-13T01:29:08.068Z,4.00
2018-04-13T01:30:08.084Z,4.00
2018-04-13T01:31:08.100Z,4.00
2018-04-13T01:32:08.116Z,4.00
2018-04-13T01:33:08.138Z,4.00
2018-04-13T01:34:08.148Z,4.00
2018-04-13T01:35:08.168Z,4.00
2018-04-13T01:36:08.181Z,4.00
2018-04-13T01:37:08.198Z,4.00
2018-04-13T01:38:08.221Z,4.00
2018-04-13T01:39:08.231Z,4.00
2018-04-13T01:40:08.246Z,4.00
2018-04-13T01:41:08.263Z,4.00
2018-04-13T01:42:08.277Z,4.00
2018-04-13T01:43:08.294Z,4.00
2018-04-13T01:44:08.312Z,4.00
2018-04-13T01:45:08.326Z,4.00
2018-04-13T01:46:08.340Z,4.00
2018-04-13T01:47:08.360Z,4.00
2018-04-13T01:48:08.374Z,4.00
2018-04-13T01:49:08.389Z,4.00
2018-04-13T01:50:08.406Z,4.00
2018-04-13T01:51:08.429Z,4.00
2018-04-13T01:52:08.440Z,4.00
2018-04-13T01:53:08.454Z,4.00
2018-04-13T01:54:08.469Z,4.00
2018-04-13T01:55:08.487Z,4.00
2018-04-13T01:56:08.502Z,4.00
2018-04-13T01:57:08.518Z,4.00
2018-04-13T01:58:08.540Z,4.00
2018-04-13T01:59:08.555Z,4.00
2018-04-13T02:00:08.568Z,4.00
2018-04-13T02:01:08.585Z,4.00
2018-04-13T02:02:08.601Z,4.00
2018-04-13T02:03:08.619Z,4.00
2018-04-13T02:04:08.652Z,4.00
2018-04-13T02:05:08.675Z,4.00
2018-04-13T02:06:08.663Z,4.00
2018-04-13T02:07:08.679Z,4.00
2018-04-13T02:08:08.699Z,4.00
2018-04-13T02:09:08.711Z,4.00
2018-04-13T02:10:08.726Z,4.00
2018-04-13T02:11:08.742Z,4.00
2018-04-13T02:12:08.760Z,4.00
2018-04-13T02:13:08.779Z,4.00
2018-04-13T02:14:08.790Z,4.00
2018-04-13T02:15:08.808Z,4.00
2018-04-13T02:16:08.825Z,4.00
2018-04-13T02:17:08.839Z,4.00
2018-04-13T02:18:08.860Z,4.00
2018-04-13T02:19:08.870Z,4.00
2018-04-13T02:20:08.889Z,4.00
2018-04-13T02:21:08.903Z,4.00
2018-04-13T02:22:08.918Z,4.00
2018-04-13T02:23:08.935Z,4.00
2018-04-13T02:24:08.952Z,4.00
2018-04-13T02:25:08.966Z,4.00
2018-04-13T02:26:08.983Z,4.00
2018-04-13T02:27:08.999Z,4.00
2018-04-13T02:28:09.019Z,4.00
2018-04-13T02:29:09.031Z,4.00
2018-04-13T02:30:09.060Z,4.00
2018-04-13T02:31:09.434Z,4.00
2018-04-13T02:32:09.079Z,4.00
2018-04-13T02:33:09.096Z,4.00
2018-04-13T02:34:09.109Z,4.00
2018-04-13T02:35:09.126Z,4.00
2018-04-13T02:36:09.144Z,4.00
2018-04-13T02:37:09.160Z,4.00
2018-04-13T02:38:09.172Z,4.00
2018-04-13T02:39:09.190Z,4.00
2018-04-13T02:40:09.209Z,4.00
2018-04-13T02:41:09.222Z,4.00
2018-04-13T02:42:09.238Z,4.00
2018-04-13T02:43:09.254Z,4.00
2018-04-13T02:44:09.268Z,4.00
2018-04-13T02:45:09.286Z,4.00
2018-04-13T02:46:09.302Z,4.00
2018-04-13T02:47:09.319Z,4.00
2018-04-13T02:48:09.336Z,4.00
2018-04-13T02:49:09.349Z,4.00
2018-04-13T02:50:09.364Z,4.00
2018-04-13T02:51:09.380Z,4.00
2018-04-13T02:52:09.395Z,4.00
2018-04-13T02:53:09.418Z,4.00
2018-04-13T02:54:09.427Z,4.00
2018-04-13T02:55:09.443Z,4.00
2018-04-13T02:56:09.458Z,4.00
2018-04-13T02:57:09.474Z,4.00
2018-04-13T02:58:09.490Z,4.00
2018-04-13T02:59:09.506Z,4.00
2018-04-13T03:00:09.522Z,4.00
2018-04-13T03:01:09.537Z,4.00
2018-04-13T03:02:09.553Z,4.00
2018-04-13T03:03:09.571Z,4.00
2018-04-13T03:04:09.585Z,4.00
2018-04-13T03:05:09.600Z,4.00
2018-04-13T03:06:09.617Z,4.00
2018-04-13T03:07:09.633Z,4.00
2018-04-13T03:08:09.647Z,4.00
2018-04-13T03:09:09.663Z,4.00
2018-04-13T03:10:09.680Z,4.00
2018-04-13T03:11:09.697Z,4.00
2018-04-13T03:12:09.713Z,4.00
2018-04-13T03:13:09.730Z,4.00
2018-04-13T03:14:09.744Z,4.00
2018-04-13T03:15:09.762Z,4.00
2018-04-13T03:16:09.776Z,4.00
2018-04-13T03:17:09.792Z,4.00
2018-04-13T03:18:09.809Z,4.00
2018-04-13T03:19:09.826Z,4.00
2018-04-13T03:20:09.839Z,4.00
2018-04-13T03:21:09.858Z,4.00
2018-04-13T03:22:09.883Z,4.00
2018-04-13T03:23:09.987Z,4.00
2018-04-13T03:24:09.905Z,4.00
2018-04-13T03:25:09.917Z,4.00
2018-04-13T03:26:09.932Z,4.00
2018-04-13T03:27:09.951Z,4.00
2018-04-13T03:28:09.966Z,4.00
2018-04-13T03:29:09.981Z,4.00
2018-04-13T03:30:09.997Z,4.00
2018-04-13T03:31:10.027Z,4.00
2018-04-13T03:32:10.029Z,4.00
2018-04-13T03:33:10.049Z,4.00
2018-04-13T03:34:10.061Z,4.00
2018-04-13T03:35:10.074Z,4.00
2018-04-13T03:36:10.092Z,4.00
2018-04-13T03:37:10.700Z,4.00
2018-04-13T03:38:10.368Z,4.00
2018-04-13T03:39:10.238Z,4.00
2018-04-13T03:40:10.159Z,4.00
2018-04-13T03:41:10.168Z,4.00
2018-04-13T03:42:10.242Z,4.00
2018-04-13T03:43:10.199Z,4.00
2018-04-13T03:44:10.218Z,4.00
2018-04-13T03:45:10.228Z,4.00
2018-04-13T03:46:10.240Z,4.00
2018-04-13T03:47:10.307Z,4.00
2018-04-13T03:48:10.272Z,4.00
2018-04-13T03:49:10.287Z,4.00
2018-04-13T03:50:10.308Z,4.00
2018-04-13T03:51:10.335Z,4.00
2018-04-13T03:52:10.335Z,4.00
2018-04-13T03:53:10.350Z,4.00
2018-04-13T03:54:10.367Z,4.00
2018-04-13T03:55:10.385Z,4.00
2018-04-13T03:56:10.398Z,4.00
2018-04-13T03:57:10.412Z,4.00
2018-04-13T03:58:10.429Z,4.00
2018-04-13T03:59:10.443Z,4.00
2018-04-13T04:00:10.459Z,4.00
2018-04-13T04:01:10.473Z,4.00
2018-04-13T04:02:10.541Z,4.00
2018-04-13T04:03:10.506Z,4.00
2018-04-13T04:04:10.523Z,4.00
2018-04-13T04:05:10.538Z,4.00
2018-04-13T04:06:10.558Z,4.00
2018-04-13T04:07:10.569Z,4.00
2018-04-13T04:08:10.588Z,4.00
2018-04-13T04:09:10.607Z,4.00
2018-04-13T04:10:10.621Z,4.00
2018-04-13T04:11:10.640Z,4.00
2018-04-13T04:12:10.648Z,4.00
2018-04-13T04:13:10.665Z,4.00
2018-04-13T04:14:10.679Z,4.00
2018-04-13T04:15:10.698Z,4.00
2018-04-13T04:16:10.710Z,8.00
2018-04-13T04:17:10.725Z,4.00
2018-04-13T04:18:10.740Z,4.00
2018-04-13T04:19:10.758Z,8.00
2018-04-13T04:20:10.778Z,4.00
2018-04-13T04:21:10.789Z,8.00
2018-04-13T04:22:10.805Z,12.00
2018-04-13T04:23:10.825Z,8.00
2018-04-13T04:24:10.880Z,8.00
2018-04-13T04:25:10.856Z,12.00
2018-04-13T04:26:10.867Z,12.00
2018-04-13T04:27:10.882Z,12.00
2018-04-13T04:28:10.902Z,12.00
2018-04-13T04:29:10.914Z,16.00
2018-04-13T04:30:10.928Z,16.00
2018-04-13T04:31:10.949Z,20.00
2018-04-13T04:32:10.962Z,24.00
2018-04-13T04:33:10.977Z,24.00
2018-04-13T04:34:10.993Z,28.00
2018-04-13T04:35:11.007Z,36.00
2018-04-13T04:36:11.028Z,36.00
2018-04-13T04:37:11.041Z,40.00
2018-04-13T04:38:11.054Z,44.00
2018-04-13T04:39:11.070Z,48.00
2018-04-13T04:40:11.086Z,52.00
2018-04-13T04:41:11.101Z,56.00
2018-04-13T04:42:11.121Z,64.00
2018-04-13T04:43:11.133Z,72.00
2018-04-13T04:44:11.148Z,76.00
2018-04-13T04:45:11.162Z,88.00
2018-04-13T04:46:11.184Z,92.00
2018-04-13T04:47:11.202Z,100.00
2018-04-13T04:48:11.213Z,108.00
2018-04-13T04:49:11.233Z,120.00
2018-04-13T04:50:11.242Z,132.00
2018-04-13T04:51:11.258Z,140.00
2018-04-13T04:52:11.276Z,152.00
2018-04-13T04:53:11.294Z,168.00
2018-04-13T04:54:11.309Z,180.00
2018-04-13T04:55:11.322Z,192.00
2018-04-13T04:56:11.339Z,204.00
2018-04-13T04:57:11.353Z,216.00
2018-04-13T04:58:11.370Z,224.00
2018-04-13T04:59:11.390Z,236.00
2018-04-13T05:00:11.403Z,244.00
2018-04-13T05:01:11.416Z,256.00
2018-04-13T05:02:11.438Z,272.00
2018-04-13T05:03:11.454Z,280.00
2018-04-13T05:04:11.464Z,296.00
2018-04-13T05:05:11.477Z,312.00
2018-04-13T05:06:11.503Z,328.00
2018-04-13T05:07:11.509Z,344.00
2018-04-13T05:08:11.526Z,360.00
2018-04-13T05:09:11.540Z,380.00
2018-04-13T05:10:11.557Z,400.00
2018-04-13T05:11:11.586Z,416.00
2018-04-13T05:12:11.590Z,432.00
2018-04-13T05:13:11.610Z,456.00
2018-04-13T05:14:11.622Z,472.00
2018-04-13T05:15:11.637Z,488.00
2018-04-13T05:16:11.656Z,504.00
2018-04-13T05:17:11.680Z,516.00
2018-04-13T05:18:11.690Z,520.00
2018-04-13T05:19:11.702Z,532.00
2018-04-13T05:20:11.716Z,540.00
2018-04-13T05:21:11.787Z,544.00
2018-04-13T05:22:11.755Z,552.00
2018-04-13T05:23:11.777Z,556.00
2018-04-13T05:24:11.798Z,564.00
2018-04-13T05:25:11.795Z,576.00
2018-04-13T05:26:11.810Z,584.00
2018-04-13T05:27:11.826Z,588.00
2018-04-13T05:28:11.843Z,600.00
2018-04-13T05:29:11.883Z,608.00
2018-04-13T05:30:11.876Z,620.00
2018-04-13T05:31:11.891Z,628.00
2018-04-13T05:32:11.906Z,632.00
2018-04-13T05:33:11.925Z,636.00
2018-04-13T05:34:11.937Z,644.00
2018-04-13T05:35:12.044Z,648.00
2018-04-13T05:36:11.973Z,652.00
2018-04-13T05:37:11.984Z,656.00
2018-04-13T05:38:12.001Z,660.00
2018-04-13T05:39:12.018Z,668.00
2018-04-13T05:40:12.033Z,680.00
2018-04-13T05:41:12.048Z,688.00
2018-04-13T05:42:12.070Z,692.00
2018-04-13T05:43:12.085Z,704.00
2018-04-13T05:44:12.097Z,712.00
2018-04-13T05:45:12.110Z,720.00
2018-04-13T05:46:12.127Z,732.00
2018-04-13T05:47:12.144Z,744.00
2018-04-13T05:48:12.160Z,756.00
2018-04-13T05:49:12.181Z,764.00
2018-04-13T05:50:12.190Z,768.00
2018-04-13T05:51:12.208Z,772.00
2018-04-13T05:52:12.222Z,776.00
2018-04-13T05:53:12.237Z,776.00
2018-04-13T05:54:12.253Z,784.00
2018-04-13T05:55:12.269Z,792.00
2018-04-13T05:56:12.285Z,800.00
2018-04-13T05:57:12.304Z,812.00
2018-04-13T05:58:12.317Z,828.00
2018-04-13T05:59:12.344Z,848.00
2018-04-13T06:00:12.371Z,864.00
2018-04-13T06:01:12.364Z,880.00
2018-04-13T06:02:12.380Z,900.00
2018-04-13T06:03:12.396Z,920.00
2018-04-13T06:04:12.413Z,944.00
2018-04-13T06:05:12.427Z,968.00
2018-04-13T06:06:12.444Z,1000.00
2018-04-13T06:07:12.460Z,1028.00
2018-04-13T06:08:12.475Z,1064.00
2018-04-13T06:09:12.490Z,1092.00
2018-04-13T06:10:12.506Z,1116.00
2018-04-13T06:11:12.529Z,1140.00
2018-04-13T06:12:12.539Z,1164.00
2018-04-13T06:13:12.553Z,1196.00
2018-04-13T06:14:12.573Z,1224.00
2018-04-13T06:15:13.083Z,1260.00
2018-04-13T06:16:12.603Z,1284.00
2018-04-13T06:17:12.623Z,1304.00
2018-04-13T06:18:12.664Z,1320.00
2018-04-13T06:19:12.651Z,1332.00
2018-04-13T06:20:12.674Z,1344.00
2018-04-13T06:21:12.686Z,1352.00
2018-04-13T06:22:12.702Z,1356.00
2018-04-13T06:23:12.718Z,1360.00
2018-04-13T06:24:12.738Z,1368.00
2018-04-13T06:25:12.746Z,1380.00
2018-04-13T06:26:12.763Z,1392.00
2018-04-13T06:27:12.782Z,1420.00
2018-04-13T06:28:12.797Z,1456.00
2018-04-13T06:29:12.811Z,1492.00
2018-04-13T06:30:12.870Z,1536.00
2018-04-13T06:31:12.851Z,1576.00
2018-04-13T06:32:12.864Z,1612.00
2018-04-13T06:33:12.880Z,1680.00
2018-04-13T06:34:12.893Z,1660.00
2018-04-13T06:35:12.913Z,1660.00
2018-04-13T06:36:12.929Z,1640.00
2018-04-13T06:37:12.996Z,1596.00
2018-04-13T06:38:12.973Z,1536.00
2018-04-13T06:39:12.975Z,1468.00
2018-04-13T06:40:12.992Z,1364.00
2018-04-13T06:41:13.005Z,1240.00
2018-04-13T06:42:13.399Z,1116.00
2018-04-13T06:43:13.041Z,1012.00
2018-04-13T06:44:13.054Z,956.00
2018-04-13T06:45:13.071Z,944.00
2018-04-13T06:46:13.089Z,988.00
2018-04-13T06:47:13.104Z,1056.00
2018-04-13T06:48:13.120Z,1132.00
2018-04-13T06:49:13.186Z,1184.00
2018-04-13T06:50:13.304Z,1224.00
2018-04-13T06:51:13.272Z,1256.00
2018-04-13T06:52:13.181Z,1284.00
2018-04-13T06:53:13.208Z,1320.00
2018-04-13T06:54:13.214Z,1360.00
2018-04-13T06:55:13.229Z,1396.00
2018-04-13T06:56:13.246Z,1452.00
2018-04-13T06:57:13.262Z,1512.00
2018-04-13T06:58:13.278Z,1576.00
2018-04-13T06:59:13.354Z,1640.00
2018-04-13T07:00:13.312Z,1708.00
2018-04-13T07:01:13.350Z,1772.00
2018-04-13T07:02:13.341Z,1844.00
2018-04-13T07:03:13.363Z,1904.00
2018-04-13T07:04:13.376Z,1968.00
2018-04-13T07:05:13.392Z,2036.00
2018-04-13T07:06:13.415Z,2112.00
2018-04-13T07:07:13.429Z,2180.00
2018-04-13T07:08:13.437Z,2236.00
2018-04-13T07:09:13.485Z,2284.00
2018-04-13T07:10:13.491Z,2332.00
2018-04-13T07:11:13.491Z,2372.00
2018-04-13T07:12:13.505Z,2408.00
2018-04-13T07:13:13.521Z,2444.00
2018-04-13T07:14:13.769Z,2488.00
2018-04-13T07:15:13.785Z,2520.00
2018-04-13T07:16:13.691Z,2568.00
2018-04-13T07:17:13.639Z,2640.00
2018-04-13T07:18:13.601Z,2636.00
2018-04-13T07:19:13.632Z,2624.00
2018-04-13T07:20:13.637Z,2604.00
2018-04-13T07:21:13.651Z,2556.00
2018-04-13T07:22:13.675Z,2476.00
2018-04-13T07:23:13.682Z,2396.00
2018-04-13T07:24:13.909Z,2368.00
2018-04-13T07:25:13.719Z,2396.00
2018-04-13T07:26:13.754Z,2364.00
2018-04-13T07:27:13.753Z,2292.00
2018-04-13T07:28:13.764Z,2200.00
2018-04-13T07:29:13.782Z,2136.00
2018-04-13T07:30:13.808Z,2068.00
2018-04-13T07:31:13.817Z,2020.00
2018-04-13T07:32:13.833Z,1976.00
2018-04-13T07:33:13.850Z,1932.00
2018-04-13T07:34:13.868Z,1900.00
2018-04-13T07:35:13.882Z,1816.00
2018-04-13T07:36:13.920Z,1808.00
2018-04-13T07:37:13.928Z,1756.00
2018-04-13T07:38:13.947Z,1700.00
2018-04-13T07:39:13.945Z,1664.00
2018-04-13T07:40:13.961Z,1632.00
2018-04-13T07:41:13.985Z,1668.00
2018-04-13T07:42:15.101Z,1676.00
2018-04-13T07:43:14.027Z,1660.00
2018-04-13T07:44:14.054Z,1652.00
2018-04-13T07:45:14.045Z,1628.00
2018-04-13T07:46:14.065Z,1656.00
2018-04-13T07:47:14.086Z,1668.00
2018-04-13T07:48:14.103Z,1684.00
2018-04-13T07:49:14.110Z,1716.00
2018-04-13T07:50:14.293Z,1732.00
2018-04-13T07:51:14.142Z,1736.00
2018-04-13T07:52:14.158Z,1744.00
2018-04-13T07:53:14.179Z,1776.00
2018-04-13T07:54:14.190Z,1820.00
2018-04-13T07:55:14.208Z,1844.00
2018-04-13T07:56:14.231Z,1892.00
2018-04-13T07:57:14.310Z,1944.00
2018-04-13T07:58:14.252Z,1996.00
2018-04-13T07:59:14.280Z,2036.00
2018-04-13T08:00:14.294Z,2072.00
2018-04-13T08:01:14.565Z,2112.00
2018-04-13T08:02:14.321Z,2156.00
2018-04-13T08:03:14.344Z,2192.00
2018-04-13T08:04:14.350Z,2284.00
2018-04-13T08:05:14.371Z,2260.00
2018-04-13T08:06:14.386Z,2300.00
2018-04-13T08:07:14.410Z,2328.00
2018-04-13T08:08:14.417Z,2364.00
2018-04-13T08:09:14.446Z,2396.00
2018-04-13T08:10:14.703Z,2436.00
2018-04-13T08:11:14.476Z,2468.00
2018-04-13T08:12:14.487Z,2504.00
2018-04-13T08:13:14.501Z,2548.00
2018-04-13T08:14:14.516Z,2576.00
2018-04-13T08:15:14.535Z,2604.00
2018-04-13T08:16:14.554Z,2628.00
2018-04-13T08:17:14.563Z,2644.00
2018-04-13T08:18:14.613Z,2660.00
2018-04-13T08:19:14.602Z,2676.00
2018-04-13T08:20:14.614Z,2692.00
2018-04-13T08:21:14.636Z,2712.00
2018-04-13T08:22:14.660Z,2728.00
2018-04-13T08:23:14.664Z,2736.00
2018-04-13T08:24:14.687Z,2744.00
2018-04-13T08:25:14.871Z,2744.00
2018-04-13T08:26:14.715Z,2748.00
2018-04-13T08:27:14.738Z,2748.00
2018-04-13T08:28:14.751Z,2756.00
2018-04-13T08:29:14.819Z,2764.00
2018-04-13T08:30:14.779Z,2772.00
2018-04-13T08:31:14.812Z,2784.00
2018-04-13T08:32:14.818Z,2804.00
2018-04-13T08:33:14.834Z,2816.00
2018-04-13T08:34:14.845Z,2852.00
2018-04-13T08:35:14.876Z,2868.00
2018-04-13T08:36:14.884Z,2896.00
2018-04-13T08:37:14.902Z,2936.00
2018-04-13T08:38:15.062Z,2964.00
2018-04-13T08:39:14.932Z,2992.00
2018-04-13T08:40:14.950Z,3016.00
2018-04-13T08:41:14.965Z,3032.00
2018-04-13T08:42:14.984Z,3064.00
2018-04-13T08:43:15.054Z,3072.00
2018-04-13T08:44:15.043Z,3080.00
2018-04-13T08:45:15.033Z,3076.00
2018-04-13T08:46:15.050Z,3072.00
2018-04-13T08:47:15.067Z,3100.00
2018-04-13T08:48:15.118Z,3084.00
2018-04-13T08:49:15.222Z,3064.00
2018-04-13T08:50:15.179Z,3032.00
2018-04-13T08:51:15.134Z,3000.00
2018-04-13T08:52:15.154Z,2964.00
2018-04-13T08:53:15.168Z,2928.00
2018-04-13T08:54:15.192Z,2892.00
2018-04-13T08:55:15.204Z,2856.00
2018-04-13T08:56:15.223Z,2832.00
2018-04-13T08:57:15.237Z,2804.00
2018-04-13T08:58:15.254Z,2776.00
2018-04-13T08:59:15.271Z,2756.00
2018-04-13T09:00:15.662Z,2740.00
2018-04-13T09:01:15.338Z,2728.00
2018-04-13T09:02:15.322Z,2724.00
2018-04-13T09:03:15.342Z,2728.00
2018-04-13T09:04:15.356Z,2740.00
2018-04-13T09:05:15.372Z,2748.00
2018-04-13T09:06:15.389Z,2764.00
2018-04-13T09:07:15.407Z,2772.00
2018-04-13T09:08:15.424Z,2772.00
2018-04-13T09:09:15.443Z,2764.00
2018-04-13T09:10:15.458Z,2744.00
2018-04-13T09:12:15.494Z,2712.00
2018-04-13T09:13:15.529Z,2688.00
2018-04-13T09:14:15.574Z,2664.00
2018-04-13T09:15:15.547Z,2648.00
2018-04-13T09:16:15.563Z,2644.00
2018-04-13T09:17:15.581Z,2664.00
2018-04-13T09:18:15.596Z,2716.00
2018-04-13T09:19:15.616Z,2796.00
2018-04-13T09:20:15.630Z,2912.00
2018-04-13T09:21:15.647Z,3064.00
2018-04-13T09:22:15.669Z,3272.00
2018-04-13T09:23:15.683Z,3504.00
2018-04-13T09:24:15.702Z,3744.00
2018-04-13T09:25:15.716Z,3944.00
2018-04-13T09:26:15.735Z,4104.00
2018-04-13T09:27:15.756Z,4288.00
2018-04-13T09:28:15.773Z,4440.00
2018-04-13T09:29:15.785Z,4552.00
2018-04-13T09:30:15.804Z,4592.00
2018-04-13T09:31:15.822Z,4604.00
2018-04-13T09:32:15.838Z,4568.00
2018-04-13T09:33:16.307Z,4520.00
2018-04-13T09:34:15.872Z,4464.00
2018-04-13T09:35:15.898Z,4408.00
2018-04-13T09:36:16.738Z,4424.00
2018-04-13T09:37:15.924Z,4380.00
2018-04-13T09:38:15.950Z,4268.00
2018-04-13T09:39:16.162Z,4168.00
2018-04-13T09:40:15.978Z,4016.00
2018-04-13T09:41:15.996Z,3916.00
2018-04-13T09:42:16.014Z,3860.00
2018-04-13T09:43:16.032Z,3776.00
2018-04-13T09:44:16.047Z,3712.00
2018-04-13T09:45:16.064Z,3712.00
2018-04-13T09:46:16.086Z,3760.00
2018-04-13T09:47:16.100Z,3840.00
2018-04-13T09:48:16.117Z,3992.00
2018-04-13T09:49:16.134Z,4060.00
2018-04-13T09:50:16.152Z,4064.00
2018-04-13T09:51:16.170Z,4272.00
2018-04-13T09:52:16.189Z,4308.00
2018-04-13T09:53:16.207Z,4352.00
2018-04-13T09:54:16.221Z,4408.00
2018-04-13T09:55:16.240Z,4460.00
2018-04-13T09:56:16.257Z,4500.00
2018-04-13T09:57:16.503Z,4560.00
2018-04-13T09:58:16.293Z,4632.00
2018-04-13T09:59:16.311Z,4700.00
2018-04-13T10:00:16.328Z,4716.00
2018-04-13T10:01:16.345Z,4724.00
2018-04-13T10:02:16.362Z,4736.00
2018-04-13T10:03:16.442Z,4756.00
2018-04-13T10:04:18.528Z,4748.00
2018-04-13T10:05:16.416Z,4748.00
2018-04-13T10:06:16.436Z,4768.00
2018-04-13T10:07:16.474Z,4728.00
2018-04-13T10:08:16.471Z,4600.00
2018-04-13T10:09:16.497Z,4496.00
2018-04-13T10:10:16.505Z,4372.00
2018-04-13T10:11:16.527Z,4248.00
2018-04-13T10:12:16.549Z,4144.00
2018-04-13T10:13:16.562Z,4028.00
2018-04-13T10:14:16.588Z,3936.00
2018-04-13T10:15:16.596Z,3856.00
2018-04-13T10:16:16.617Z,3780.00
2018-04-13T10:17:16.634Z,3716.00
2018-04-13T10:18:16.650Z,3692.00
2018-04-13T10:19:16.672Z,3656.00
2018-04-13T10:20:16.690Z,3604.00
2018-04-13T10:21:16.708Z,3540.00
2018-04-13T10:22:16.722Z,3472.00
2018-04-13T10:23:16.742Z,3416.00
2018-04-13T10:24:16.757Z,3348.00
2018-04-13T10:25:16.779Z,3292.00
2018-04-13T10:26:16.796Z,3260.00
2018-04-13T10:27:16.816Z,3264.00
2018-04-13T10:28:16.831Z,3296.00
2018-04-13T10:29:16.848Z,3328.00
2018-04-13T10:30:16.869Z,3336.00
2018-04-13T10:31:16.882Z,3412.00
2018-04-13T10:32:16.904Z,3452.00
2018-04-13T10:33:16.921Z,3468.00
2018-04-13T10:34:16.944Z,3456.00
2018-04-13T10:35:16.955Z,3432.00
2018-04-13T10:36:16.975Z,3424.00
2018-04-13T10:37:16.993Z,3448.00
2018-04-13T10:38:17.011Z,3484.00
2018-04-13T10:39:17.030Z,3524.00
2018-04-13T10:40:17.053Z,3556.00
2018-04-13T10:41:17.061Z,3588.00
2018-04-13T10:42:17.080Z,3616.00
2018-04-13T10:43:17.117Z,3640.00
2018-04-13T10:44:17.666Z,3608.00
2018-04-13T10:45:17.134Z,3604.00
2018-04-13T10:46:17.152Z,3568.00
2018-04-13T10:47:17.171Z,3520.00
2018-04-13T10:48:17.190Z,3488.00
2018-04-13T10:49:17.512Z,3464.00
2018-04-13T10:50:17.229Z,3464.00
2018-04-13T10:51:17.244Z,3460.00
2018-04-13T10:52:17.260Z,3464.00
2018-04-13T10:53:17.282Z,3476.00
2018-04-13T10:54:17.298Z,3496.00
2018-04-13T10:55:17.314Z,3524.00
2018-04-13T10:56:17.338Z,3564.00
2018-04-13T10:57:17.453Z,3604.00
2018-04-13T10:58:17.372Z,3704.00
2018-04-13T10:59:17.389Z,3788.00
2018-04-13T11:00:17.406Z,3880.00
2018-04-13T11:01:17.430Z,3952.00
2018-04-13T11:02:17.441Z,4000.00
2018-04-13T11:03:17.460Z,4028.00
2018-04-13T11:04:17.487Z,4036.00
2018-04-13T11:05:17.501Z,4016.00
2018-04-13T11:06:17.519Z,3988.00
2018-04-13T11:07:17.541Z,3952.00
2018-04-13T11:08:17.831Z,3912.00
2018-04-13T11:09:17.650Z,3880.00
2018-04-13T11:10:18.211Z,3832.00
2018-04-13T11:11:17.978Z,3848.00
2018-04-13T11:12:17.621Z,3840.00
2018-04-13T11:13:17.639Z,3832.00
2018-04-13T11:14:17.662Z,3808.00
2018-04-13T11:15:17.684Z,3780.00
2018-04-13T11:16:17.843Z,3736.00
2018-04-13T11:17:18.150Z,3680.00
2018-04-13T11:19:17.741Z,3564.00
2018-04-13T11:20:17.769Z,3516.00
2018-04-13T11:21:18.133Z,3428.00
2018-04-13T11:22:17.793Z,3420.00
2018-04-13T11:23:17.913Z,3372.00
2018-04-13T11:24:17.837Z,3320.00
2018-04-13T11:25:17.846Z,3268.00
2018-04-13T11:26:17.867Z,3240.00
2018-04-13T11:27:17.882Z,3236.00
2018-04-13T11:28:17.901Z,3248.00
2018-04-13T11:29:17.920Z,3284.00
2018-04-13T11:30:17.937Z,3332.00
2018-04-13T11:31:17.960Z,3416.00
2018-04-13T11:32:17.972Z,3464.00
2018-04-13T11:33:17.996Z,3536.00
2018-04-13T11:34:18.007Z,3612.00
2018-04-13T11:35:18.031Z,3684.00
2018-04-13T11:36:18.046Z,3752.00
2018-04-13T11:37:18.071Z,3820.00
2018-04-13T11:38:18.094Z,3880.00
2018-04-13T11:39:18.097Z,3932.00
2018-04-13T11:40:18.238Z,3964.00
2018-04-13T11:41:18.253Z,4008.00
2018-04-13T11:42:18.352Z,4024.00
2018-04-13T11:43:18.169Z,4008.00
2018-04-13T11:44:18.187Z,3968.00
2018-04-13T11:45:18.203Z,3904.00
2018-04-13T11:46:18.226Z,3836.00
2018-04-13T11:47:18.241Z,3748.00
2018-04-13T11:48:18.261Z,3676.00
2018-04-13T11:49:18.280Z,3584.00
2018-04-13T11:50:18.303Z,3480.00
2018-04-13T11:51:18.313Z,3400.00
2018-04-13T11:52:18.337Z,3312.00
2018-04-13T11:53:18.349Z,3208.00
2018-04-13T11:54:18.369Z,3096.00
2018-04-13T11:55:18.384Z,2976.00
2018-04-13T11:56:18.402Z,2856.00
2018-04-13T11:57:18.419Z,2744.00
2018-04-13T11:58:18.438Z,2664.00
2018-04-13T11:59:18.459Z,2604.00
2018-04-13T12:00:18.472Z,2548.00
2018-04-13T12:01:18.490Z,2508.00
2018-04-13T12:02:18.510Z,2444.00
2018-04-13T12:03:18.525Z,2368.00
2018-04-13T12:04:18.544Z,2264.00
2018-04-13T12:05:18.561Z,2148.00
2018-04-13T12:06:18.584Z,2000.00
2018-04-13T12:07:18.596Z,1856.00
2018-04-13T12:08:18.615Z,1712.00
2018-04-13T12:09:18.635Z,1572.00
2018-04-13T12:10:18.653Z,1464.00
2018-04-13T12:11:18.669Z,1372.00
2018-04-13T12:12:18.683Z,1304.00
2018-04-13T12:13:18.702Z,1248.00
2018-04-13T12:14:18.723Z,1216.00
2018-04-13T12:15:18.750Z,1188.00
2018-04-13T12:16:18.758Z,1164.00
2018-04-13T12:17:18.770Z,1152.00
2018-04-13T12:18:18.788Z,1140.00
2018-04-13T12:19:18.805Z,1132.00
2018-04-13T12:20:18.823Z,1112.00
2018-04-13T12:21:18.839Z,1088.00
2018-04-13T12:22:18.858Z,1060.00
2018-04-13T12:23:18.875Z,1028.00
2018-04-13T12:24:18.891Z,1004.00
2018-04-13T12:25:18.907Z,984.00
2018-04-13T12:26:18.934Z,976.00
2018-04-13T12:27:18.956Z,976.00
2018-04-13T12:28:18.960Z,992.00
2018-04-13T12:29:18.975Z,1012.00
2018-04-13T12:30:18.993Z,1048.00
2018-04-13T12:31:19.051Z,1088.00
2018-04-13T12:32:19.031Z,1136.00
2018-04-13T12:33:19.044Z,1192.00
2018-04-13T12:34:19.063Z,1260.00
2018-04-13T12:35:19.076Z,1316.00